sensor_id;sensor_type;location;lat;lon;timestamp;P1;durP1;ratioP1;P2;durP2;ratioP2
52342;SDS011;38277;51.972;4.624;2022-07-23T00:03:47;3.1;;;1.9;;
52342;SDS011;38277;51.972;4.624;2022-07-23T00:08:07;2.5;;;1.8;;
52342;SDS011;38277;51.972;4.624;2022-07-23T00:12:47;2.6;;;1.9;;
52342;SDS011;38277;51.972;4.624;2022-07-23T00:17:20;4.6;;;2.2;;
52342;SDS011;38277;51.972;4.624;2022-07-23T00:21:28;3.1;;;2.3;;
52342;SDS011;38277;51.972;4.624;2022-07-23T00:30:52;5.4;;;2.2;;
52342;SDS011;38277;51.972;4.624;2022-07-23T00:35:18;4.3;;;2.2;;
52342;SDS011;38277;51.972;4.624;2022-07-23T00:39:54;3.1;;;2.2;;
52342;SDS011;38277;51.972;4.624;2022-07-23T00:48:39;3.0;;;2.0;;
52342;SDS011;38277;51.972;4.624;2022-07-23T00:52:55;4.3;;;2.3;;
52342;SDS011;38277;51.972;4.624;2022-07-23T00:57:44;3.5;;;1.9;;
52342;SDS011;38277;51.972;4.624;2022-07-23T01:02:35;2.4;;;2.1;;
52342;SDS011;38277;51.972;4.624;2022-07-23T01:06:51;3.2;;;1.9;;
52342;SDS011;38277;51.972;4.624;2022-07-23T01:11:06;3.8;;;2.4;;
52342;SDS011;38277;51.972;4.624;2022-07-23T01:15:52;4.3;;;2.4;;
52342;SDS011;38277;51.972;4.624;2022-07-23T01:20:03;3.4;;;2.3;;
52342;SDS011;38277;51.972;4.624;2022-07-23T01:24:40;4.4;;;2.4;;
52342;SDS011;38277;51.972;4.624;2022-07-23T01:29:06;4.0;;;2.3;;
52342;SDS011;38277;51.972;4.624;2022-07-23T01:33:54;3.7;;;2.8;;
52342;SDS011;38277;51.972;4.624;2022-07-23T01:38:12;4.1;;;2.3;;
52342;SDS011;38277;51.972;4.624;2022-07-23T01:42:50;3.0;;;2.2;;
52342;SDS011;38277;51.972;4.624;2022-07-23T01:46:57;3.7;;;2.4;;
52342;SDS011;38277;51.972;4.624;2022-07-23T01:51:32;5.2;;;2.6;;
52342;SDS011;38277;51.972;4.624;2022-07-23T01:56:01;4.1;;;2.8;;
52342;SDS011;38277;51.972;4.624;2022-07-23T02:00:52;4.4;;;2.2;;
52342;SDS011;38277;51.972;4.624;2022-07-23T02:05:16;5.7;;;2.5;;
52342;SDS011;38277;51.972;4.624;2022-07-23T02:09:43;3.7;;;2.8;;
52342;SDS011;38277;51.972;4.624;2022-07-23T02:18:37;4.4;;;2.3;;
52342;SDS011;38277;51.972;4.624;2022-07-23T02:23:08;4.5;;;2.9;;
52342;SDS011;38277;51.972;4.624;2022-07-23T02:27:25;4.5;;;2.6;;
52342;SDS011;38277;51.972;4.624;2022-07-23T02:36:29;4.1;;;2.7;;
52342;SDS011;38277;51.972;4.624;2022-07-23T02:41:10;7.8;;;3.3;;
52342;SDS011;38277;51.972;4.624;2022-07-23T02:45:37;4.9;;;3.0;;
52342;SDS011;38277;51.972;4.624;2022-07-23T02:50:22;4.6;;;2.7;;
52342;SDS011;38277;51.972;4.624;2022-07-23T02:54:53;6.0;;;2.9;;
52342;SDS011;38277;51.972;4.624;2022-07-23T02:59:24;8.0;;;3.1;;
52342;SDS011;38277;51.972;4.624;2022-07-23T03:03:39;5.1;;;2.7;;
52342;SDS011;38277;51.972;4.624;2022-07-23T03:08:13;4.7;;;2.7;;
52342;SDS011;38277;51.972;4.624;2022-07-23T03:12:48;3.3;;;2.5;;
52342;SDS011;38277;51.972;4.624;2022-07-23T03:17:11;5.2;;;2.7;;
52342;SDS011;38277;51.972;4.624;2022-07-23T03:21:46;4.6;;;2.4;;
52342;SDS011;38277;51.972;4.624;2022-07-23T03:26:01;4.3;;;2.8;;
52342;SDS011;38277;51.972;4.624;2022-07-23T03:31:05;4.3;;;2.9;;
52342;SDS011;38277;51.972;4.624;2022-07-23T03:35:13;4.8;;;3.3;;
52342;SDS011;38277;51.972;4.624;2022-07-23T03:39:34;5.2;;;3.1;;
52342;SDS011;38277;51.972;4.624;2022-07-23T03:49:02;5.8;;;3.3;;
52342;SDS011;38277;51.972;4.624;2022-07-23T03:53:11;6.7;;;4.0;;
52342;SDS011;38277;51.972;4.624;2022-07-23T03:57:25;5.3;;;3.3;;
52342;SDS011;38277;51.972;4.624;2022-07-23T04:07:02;5.8;;;3.7;;
52342;SDS011;38277;51.972;4.624;2022-07-23T04:11:22;7.6;;;4.3;;
52342;SDS011;38277;51.972;4.624;2022-07-23T04:15:54;8.5;;;4.1;;
52342;SDS011;38277;51.972;4.624;2022-07-23T04:20:02;6.3;;;4.3;;
52342;SDS011;38277;51.972;4.624;2022-07-23T04:24:33;7.1;;;3.5;;
52342;SDS011;38277;51.972;4.624;2022-07-23T04:29:24;6.6;;;3.6;;
52342;SDS011;38277;51.972;4.624;2022-07-23T04:33:37;7.3;;;4.1;;
52342;SDS011;38277;51.972;4.624;2022-07-23T04:38:03;6.5;;;3.9;;
52342;SDS011;38277;51.972;4.624;2022-07-23T04:42:50;7.5;;;3.9;;
52342;SDS011;38277;51.972;4.624;2022-07-23T04:51:50;6.1;;;3.6;;
52342;SDS011;38277;51.972;4.624;2022-07-23T05:00:35;5.0;;;3.3;;
52342;SDS011;38277;51.972;4.624;2022-07-23T05:05:02;5.0;;;3.2;;
52342;SDS011;38277;51.972;4.624;2022-07-23T05:09:42;4.8;;;2.6;;
52342;SDS011;38277;51.972;4.624;2022-07-23T05:18:44;7.4;;;4.6;;
52342;SDS011;38277;51.972;4.624;2022-07-23T05:23:12;5.8;;;3.3;;
52342;SDS011;38277;51.972;4.624;2022-07-23T05:27:41;5.6;;;2.8;;
52342;SDS011;38277;51.972;4.624;2022-07-23T05:32:15;4.0;;;3.0;;
52342;SDS011;38277;51.972;4.624;2022-07-23T05:36:53;4.8;;;3.0;;
52342;SDS011;38277;51.972;4.624;2022-07-23T05:41:14;4.7;;;2.7;;
52342;SDS011;38277;51.972;4.624;2022-07-23T05:45:26;4.7;;;3.1;;
52342;SDS011;38277;51.972;4.624;2022-07-23T05:54:30;5.0;;;2.8;;
52342;SDS011;38277;51.972;4.624;2022-07-23T05:59:12;4.3;;;2.6;;
52342;SDS011;38277;51.972;4.624;2022-07-23T06:03:40;4.6;;;2.8;;
52342;SDS011;38277;51.972;4.624;2022-07-23T06:12:31;4.4;;;2.5;;
52342;SDS011;38277;51.972;4.624;2022-07-23T06:17:14;5.8;;;2.8;;
52342;SDS011;38277;51.972;4.624;2022-07-23T06:21:47;4.8;;;2.5;;
52342;SDS011;38277;51.972;4.624;2022-07-23T06:30:49;4.1;;;2.4;;
52342;SDS011;38277;51.972;4.624;2022-07-23T06:35:16;4.6;;;2.1;;
52342;SDS011;38277;51.972;4.624;2022-07-23T06:39:31;5.1;;;2.5;;
52342;SDS011;38277;51.972;4.624;2022-07-23T06:44:03;4.8;;;2.0;;
52342;SDS011;38277;51.972;4.624;2022-07-23T06:53:20;3.0;;;1.7;;
52342;SDS011;38277;51.972;4.624;2022-07-23T06:58:01;3.7;;;2.1;;
52342;SDS011;38277;51.972;4.624;2022-07-23T07:02:10;2.5;;;1.6;;
52342;SDS011;38277;51.972;4.624;2022-07-23T07:11:19;4.7;;;2.4;;
52342;SDS011;38277;51.972;4.624;2022-07-23T07:29:13;4.9;;;3.0;;
52342;SDS011;38277;51.972;4.624;2022-07-23T07:33:47;5.3;;;2.7;;
52342;SDS011;38277;51.972;4.624;2022-07-23T07:38:24;7.4;;;3.3;;
52342;SDS011;38277;51.972;4.624;2022-07-23T07:43:03;3.7;;;2.2;;
52342;SDS011;38277;51.972;4.624;2022-07-23T07:47:12;4.1;;;2.3;;
52342;SDS011;38277;51.972;4.624;2022-07-23T07:52:07;3.1;;;2.2;;
52342;SDS011;38277;51.972;4.624;2022-07-23T07:55:56;4.1;;;2.1;;
52342;SDS011;38277;51.972;4.624;2022-07-23T08:00:40;5.2;;;2.0;;
52342;SDS011;38277;51.972;4.624;2022-07-23T08:04:58;5.5;;;2.6;;
52342;SDS011;38277;51.972;4.624;2022-07-23T08:09:45;3.0;;;1.7;;
52342;SDS011;38277;51.972;4.624;2022-07-23T08:14:02;3.2;;;1.5;;
52342;SDS011;38277;51.972;4.624;2022-07-23T08:18:33;2.9;;;1.6;;
52342;SDS011;38277;51.972;4.624;2022-07-23T08:22:56;4.7;;;2.1;;
52342;SDS011;38277;51.972;4.624;2022-07-23T08:27:50;2.5;;;1.3;;
52342;SDS011;38277;51.972;4.624;2022-07-23T08:32:13;4.0;;;1.9;;
52342;SDS011;38277;51.972;4.624;2022-07-23T08:41:16;3.7;;;1.6;;
52342;SDS011;38277;51.972;4.624;2022-07-23T08:46:04;3.3;;;1.5;;
52342;SDS011;38277;51.972;4.624;2022-07-23T08:50:07;4.3;;;1.6;;
52342;SDS011;38277;51.972;4.624;2022-07-23T08:54:54;3.5;;;1.8;;
52342;SDS011;38277;51.972;4.624;2022-07-23T08:58:59;2.8;;;1.7;;
52342;SDS011;38277;51.972;4.624;2022-07-23T09:03:52;4.9;;;2.5;;
52342;SDS011;38277;51.972;4.624;2022-07-23T09:08:13;3.5;;;1.7;;
52342;SDS011;38277;51.972;4.624;2022-07-23T09:12:39;3.5;;;1.7;;
52342;SDS011;38277;51.972;4.624;2022-07-23T09:17:07;3.3;;;2.1;;
52342;SDS011;38277;51.972;4.624;2022-07-23T09:26:21;3.9;;;2.5;;
52342;SDS011;38277;51.972;4.624;2022-07-23T09:35:15;5.1;;;2.3;;
52342;SDS011;38277;51.972;4.624;2022-07-23T09:40:10;3.8;;;1.7;;
52342;SDS011;38277;51.972;4.624;2022-07-23T09:44:10;6.5;;;2.6;;
52342;SDS011;38277;51.972;4.624;2022-07-23T09:48:44;10.9;;;3.5;;
52342;SDS011;38277;51.972;4.624;2022-07-23T09:53:23;4.4;;;1.6;;
52342;SDS011;38277;51.972;4.624;2022-07-23T09:57:54;4.4;;;2.1;;
52342;SDS011;38277;51.972;4.624;2022-07-23T10:02:17;3.8;;;1.9;;
52342;SDS011;38277;51.972;4.624;2022-07-23T10:06:29;3.3;;;2.0;;
52342;SDS011;38277;51.972;4.624;2022-07-23T10:11:15;3.6;;;1.8;;
52342;SDS011;38277;51.972;4.624;2022-07-23T10:15:58;3.5;;;1.8;;
52342;SDS011;38277;51.972;4.624;2022-07-23T10:20:15;3.5;;;1.6;;
52342;SDS011;38277;51.972;4.624;2022-07-23T10:25:10;3.6;;;2.1;;
52342;SDS011;38277;51.972;4.624;2022-07-23T10:30:22;4.6;;;2.3;;
52342;SDS011;38277;51.972;4.624;2022-07-23T10:35:15;3.8;;;1.8;;
52342;SDS011;38277;51.972;4.624;2022-07-23T10:38:25;6.0;;;2.4;;
52342;SDS011;38277;51.972;4.624;2022-07-23T10:42:35;3.4;;;2.1;;
52342;SDS011;38277;51.972;4.624;2022-07-23T10:46:59;2.9;;;1.8;;
52342;SDS011;38277;51.972;4.624;2022-07-23T10:52:21;4.0;;;2.4;;
52342;SDS011;38277;51.972;4.624;2022-07-23T10:55:58;3.0;;;2.0;;
52342;SDS011;38277;51.972;4.624;2022-07-23T11:05:22;3.5;;;2.1;;
52342;SDS011;38277;51.972;4.624;2022-07-23T11:10:04;4.6;;;2.3;;
52342;SDS011;38277;51.972;4.624;2022-07-23T11:23:19;4.3;;;2.3;;
52342;SDS011;38277;51.972;4.624;2022-07-23T11:27:53;3.9;;;2.2;;
52342;SDS011;38277;51.972;4.624;2022-07-23T11:32:04;4.2;;;2.2;;
52342;SDS011;38277;51.972;4.624;2022-07-23T11:36:27;3.2;;;2.2;;
52342;SDS011;38277;51.972;4.624;2022-07-23T11:41:11;2.6;;;1.5;;
52342;SDS011;38277;51.972;4.624;2022-07-23T11:46:05;5.3;;;1.8;;
52342;SDS011;38277;51.972;4.624;2022-07-23T11:50:05;3.7;;;1.9;;
52342;SDS011;38277;51.972;4.624;2022-07-23T11:54:37;3.9;;;1.5;;
52342;SDS011;38277;51.972;4.624;2022-07-23T11:59:05;4.1;;;1.7;;
52342;SDS011;38277;51.972;4.624;2022-07-23T12:03:28;3.0;;;1.6;;
52342;SDS011;38277;51.972;4.624;2022-07-23T12:08:16;3.0;;;1.6;;
52342;SDS011;38277;51.972;4.624;2022-07-23T12:12:51;3.8;;;1.7;;
52342;SDS011;38277;51.972;4.624;2022-07-23T12:17:07;2.3;;;1.7;;
52342;SDS011;38277;51.972;4.624;2022-07-23T12:21:28;3.5;;;1.6;;
52342;SDS011;38277;51.972;4.624;2022-07-23T12:26:12;4.0;;;1.8;;
52342;SDS011;38277;51.972;4.624;2022-07-23T12:30:43;3.0;;;1.7;;
52342;SDS011;38277;51.972;4.624;2022-07-23T12:35:09;5.1;;;1.9;;
52342;SDS011;38277;51.972;4.624;2022-07-23T12:39:50;3.4;;;1.5;;
52342;SDS011;38277;51.972;4.624;2022-07-23T12:44:24;3.3;;;1.5;;
52342;SDS011;38277;51.972;4.624;2022-07-23T12:48:51;2.6;;;1.6;;
52342;SDS011;38277;51.972;4.624;2022-07-23T12:53:10;4.9;;;1.5;;
52342;SDS011;38277;51.972;4.624;2022-07-23T12:57:45;1.8;;;1.3;;
52342;SDS011;38277;51.972;4.624;2022-07-23T13:02:25;2.6;;;1.2;;
52342;SDS011;38277;51.972;4.624;2022-07-23T13:06:41;2.5;;;1.3;;
52342;SDS011;38277;51.972;4.624;2022-07-23T13:15:37;3.6;;;2.1;;
52342;SDS011;38277;51.972;4.624;2022-07-23T13:20:21;3.0;;;1.6;;
52342;SDS011;38277;51.972;4.624;2022-07-23T13:38:06;3.1;;;1.3;;
52342;SDS011;38277;51.972;4.624;2022-07-23T13:42:27;2.4;;;1.3;;
52342;SDS011;38277;51.972;4.624;2022-07-23T13:51:29;3.5;;;1.6;;
52342;SDS011;38277;51.972;4.624;2022-07-23T13:56:12;2.9;;;1.5;;
52342;SDS011;38277;51.972;4.624;2022-07-23T14:18:52;3.0;;;1.7;;
52342;SDS011;38277;51.972;4.624;2022-07-23T14:23:14;1.9;;;1.4;;
52342;SDS011;38277;51.972;4.624;2022-07-23T14:27:39;3.1;;;1.3;;
52342;SDS011;38277;51.972;4.624;2022-07-23T14:32:22;4.1;;;1.3;;
52342;SDS011;38277;51.972;4.624;2022-07-23T14:36:51;2.2;;;1.4;;
52342;SDS011;38277;51.972;4.624;2022-07-23T14:41:09;2.5;;;1.4;;
52342;SDS011;38277;51.972;4.624;2022-07-23T14:45:45;2.3;;;1.7;;
52342;SDS011;38277;51.972;4.624;2022-07-23T14:54:27;1.8;;;1.5;;
52342;SDS011;38277;51.972;4.624;2022-07-23T14:59:50;2.7;;;1.4;;
52342;SDS011;38277;51.972;4.624;2022-07-23T15:03:49;2.7;;;1.5;;
52342;SDS011;38277;51.972;4.624;2022-07-23T15:08:23;3.0;;;1.5;;
52342;SDS011;38277;51.972;4.624;2022-07-23T15:12:48;3.1;;;1.7;;
52342;SDS011;38277;51.972;4.624;2022-07-23T15:17:16;3.3;;;1.6;;
52342;SDS011;38277;51.972;4.624;2022-07-23T15:21:25;1.6;;;1.3;;
52342;SDS011;38277;51.972;4.624;2022-07-23T15:26:11;2.1;;;1.5;;
52342;SDS011;38277;51.972;4.624;2022-07-23T15:30:42;2.4;;;1.5;;
52342;SDS011;38277;51.972;4.624;2022-07-23T15:35:31;3.3;;;1.5;;
52342;SDS011;38277;51.972;4.624;2022-07-23T15:39:41;1.9;;;1.5;;
52342;SDS011;38277;51.972;4.624;2022-07-23T15:44:18;1.8;;;1.3;;
52342;SDS011;38277;51.972;4.624;2022-07-23T15:49:02;3.2;;;1.6;;
52342;SDS011;38277;51.972;4.624;2022-07-23T15:52:59;2.6;;;1.7;;
52342;SDS011;38277;51.972;4.624;2022-07-23T16:02:16;3.6;;;1.5;;
52342;SDS011;38277;51.972;4.624;2022-07-23T16:06:43;1.6;;;1.3;;
52342;SDS011;38277;51.972;4.624;2022-07-23T16:11:24;2.3;;;1.4;;
52342;SDS011;38277;51.972;4.624;2022-07-23T16:15:39;2.4;;;1.4;;
52342;SDS011;38277;51.972;4.624;2022-07-23T16:20:11;2.2;;;1.7;;
52342;SDS011;38277;51.972;4.624;2022-07-23T16:25:02;2.9;;;1.3;;
52342;SDS011;38277;51.972;4.624;2022-07-23T16:28:58;2.2;;;1.5;;
52342;SDS011;38277;51.972;4.624;2022-07-23T16:33:48;2.8;;;1.8;;
52342;SDS011;38277;51.972;4.624;2022-07-23T16:38:08;4.2;;;1.9;;
52342;SDS011;38277;51.972;4.624;2022-07-23T16:42:44;4.3;;;1.9;;
52342;SDS011;38277;51.972;4.624;2022-07-23T16:47:16;2.8;;;1.8;;
52342;SDS011;38277;51.972;4.624;2022-07-23T16:51:43;2.3;;;1.8;;
52342;SDS011;38277;51.972;4.624;2022-07-23T16:56:13;4.1;;;1.7;;
52342;SDS011;38277;51.972;4.624;2022-07-23T17:01:02;4.2;;;2.1;;
52342;SDS011;38277;51.972;4.624;2022-07-23T17:05:06;3.1;;;1.9;;
52342;SDS011;38277;51.972;4.624;2022-07-23T17:14:17;3.0;;;2.0;;
52342;SDS011;38277;51.972;4.624;2022-07-23T17:18:49;4.6;;;2.0;;
52342;SDS011;38277;51.972;4.624;2022-07-23T17:23:02;4.8;;;2.2;;
52342;SDS011;38277;51.972;4.624;2022-07-23T17:27:44;2.4;;;1.9;;
52342;SDS011;38277;51.972;4.624;2022-07-23T17:32:00;4.0;;;2.4;;
52342;SDS011;38277;51.972;4.624;2022-07-23T17:36:41;4.2;;;2.4;;
52342;SDS011;38277;51.972;4.624;2022-07-23T17:41:07;5.0;;;2.6;;
52342;SDS011;38277;51.972;4.624;2022-07-23T17:45:37;3.2;;;2.3;;
52342;SDS011;38277;51.972;4.624;2022-07-23T17:50:17;3.8;;;2.1;;
52342;SDS011;38277;51.972;4.624;2022-07-23T17:55:03;3.3;;;2.2;;
52342;SDS011;38277;51.972;4.624;2022-07-23T17:59:15;2.4;;;1.8;;
52342;SDS011;38277;51.972;4.624;2022-07-23T18:03:54;2.1;;;1.7;;
52342;SDS011;38277;51.972;4.624;2022-07-23T18:07:58;4.6;;;2.2;;
52342;SDS011;38277;51.972;4.624;2022-07-23T18:17:20;2.3;;;1.9;;
52342;SDS011;38277;51.972;4.624;2022-07-23T18:21:32;7.9;;;2.5;;
52342;SDS011;38277;51.972;4.624;2022-07-23T18:26:05;3.1;;;2.2;;
52342;SDS011;38277;51.972;4.624;2022-07-23T18:30:38;3.5;;;2.2;;
52342;SDS011;38277;51.972;4.624;2022-07-23T18:35:10;3.4;;;2.0;;
52342;SDS011;38277;51.972;4.624;2022-07-23T18:39:52;4.7;;;1.8;;
52342;SDS011;38277;51.972;4.624;2022-07-23T18:44:07;2.7;;;1.9;;
52342;SDS011;38277;51.972;4.624;2022-07-23T18:48:59;3.8;;;2.3;;
52342;SDS011;38277;51.972;4.624;2022-07-23T18:53:18;4.6;;;2.4;;
52342;SDS011;38277;51.972;4.624;2022-07-23T18:57:58;3.3;;;2.2;;
52342;SDS011;38277;51.972;4.624;2022-07-23T19:02:08;6.2;;;2.9;;
52342;SDS011;38277;51.972;4.624;2022-07-23T19:06:54;6.7;;;2.8;;
52342;SDS011;38277;51.972;4.624;2022-07-23T19:10:58;4.4;;;2.5;;
52342;SDS011;38277;51.972;4.624;2022-07-23T19:15:29;3.4;;;2.4;;
52342;SDS011;38277;51.972;4.624;2022-07-23T19:20:20;3.1;;;2.1;;
52342;SDS011;38277;51.972;4.624;2022-07-23T19:28:56;3.4;;;2.1;;
52342;SDS011;38277;51.972;4.624;2022-07-23T19:33:42;4.0;;;2.5;;
52342;SDS011;38277;51.972;4.624;2022-07-23T19:38:03;3.2;;;2.4;;
52342;SDS011;38277;51.972;4.624;2022-07-23T19:47:02;3.2;;;2.2;;
52342;SDS011;38277;51.972;4.624;2022-07-23T19:51:45;3.7;;;2.4;;
52342;SDS011;38277;51.972;4.624;2022-07-23T19:56:01;2.3;;;2.1;;
52342;SDS011;38277;51.972;4.624;2022-07-23T20:05:09;4.1;;;2.0;;
52342;SDS011;38277;51.972;4.624;2022-07-23T20:09:51;4.7;;;2.3;;
52342;SDS011;38277;51.972;4.624;2022-07-23T20:27:42;4.9;;;2.8;;
52342;SDS011;38277;51.972;4.624;2022-07-23T20:32:20;5.3;;;2.8;;
52342;SDS011;38277;51.972;4.624;2022-07-23T20:36:29;5.3;;;2.7;;
52342;SDS011;38277;51.972;4.624;2022-07-23T20:41:24;6.8;;;3.0;;
52342;SDS011;38277;51.972;4.624;2022-07-23T20:45:37;6.5;;;4.1;;
52342;SDS011;38277;51.972;4.624;2022-07-23T20:50:29;5.9;;;3.9;;
52342;SDS011;38277;51.972;4.624;2022-07-23T20:54:28;5.9;;;4.1;;
52342;SDS011;38277;51.972;4.624;2022-07-23T20:59:21;7.9;;;4.2;;
52342;SDS011;38277;51.972;4.624;2022-07-23T21:03:26;7.6;;;3.9;;
52342;SDS011;38277;51.972;4.624;2022-07-23T21:08:24;6.5;;;3.9;;
52342;SDS011;38277;51.972;4.624;2022-07-23T21:12:42;5.2;;;3.5;;
52342;SDS011;38277;51.972;4.624;2022-07-23T21:17:00;9.1;;;4.6;;
52342;SDS011;38277;51.972;4.624;2022-07-23T21:21:53;8.3;;;5.1;;
52342;SDS011;38277;51.972;4.624;2022-07-23T21:26:17;7.0;;;4.5;;
52342;SDS011;38277;51.972;4.624;2022-07-23T21:30:54;9.9;;;5.6;;
52342;SDS011;38277;51.972;4.624;2022-07-23T21:34:58;7.3;;;4.7;;
52342;SDS011;38277;51.972;4.624;2022-07-23T21:39:38;7.4;;;4.3;;
52342;SDS011;38277;51.972;4.624;2022-07-23T21:44:17;6.2;;;4.5;;
52342;SDS011;38277;51.972;4.624;2022-07-23T21:48:34;7.1;;;4.3;;
52342;SDS011;38277;51.972;4.624;2022-07-23T21:53:07;7.7;;;4.6;;
52342;SDS011;38277;51.972;4.624;2022-07-23T21:58:07;9.1;;;5.7;;
52342;SDS011;38277;51.972;4.624;2022-07-23T22:02:08;7.4;;;5.5;;
52342;SDS011;38277;51.972;4.624;2022-07-23T22:06:42;8.2;;;5.9;;
52342;SDS011;38277;51.972;4.624;2022-07-23T22:11:19;6.4;;;4.5;;
52342;SDS011;38277;51.972;4.624;2022-07-23T22:15:51;5.6;;;3.7;;
52342;SDS011;38277;51.972;4.624;2022-07-23T22:20:13;5.8;;;4.0;;
52342;SDS011;38277;51.972;4.624;2022-07-23T22:24:27;7.8;;;4.2;;
52342;SDS011;38277;51.972;4.624;2022-07-23T22:29:02;10.0;;;5.7;;
52342;SDS011;38277;51.972;4.624;2022-07-23T22:33:38;6.5;;;4.4;;
52342;SDS011;38277;51.972;4.624;2022-07-23T22:38:06;6.0;;;4.3;;
52342;SDS011;38277;51.972;4.624;2022-07-23T22:42:34;8.3;;;4.8;;
52342;SDS011;38277;51.972;4.624;2022-07-23T22:47:10;7.3;;;4.6;;
52342;SDS011;38277;51.972;4.624;2022-07-23T22:51:50;6.0;;;4.6;;
52342;SDS011;38277;51.972;4.624;2022-07-23T22:56:02;7.8;;;5.2;;
52342;SDS011;38277;51.972;4.624;2022-07-23T23:00:51;6.9;;;4.4;;
52342;SDS011;38277;51.972;4.624;2022-07-23T23:05:01;6.7;;;4.6;;
52342;SDS011;38277;51.972;4.624;2022-07-23T23:09:37;9.2;;;4.8;;
52342;SDS011;38277;51.972;4.624;2022-07-23T23:14:22;8.6;;;5.1;;
52342;SDS011;38277;51.972;4.624;2022-07-23T23:18:47;7.2;;;5.2;;
52342;SDS011;38277;51.972;4.624;2022-07-23T23:23:10;7.2;;;4.9;;
52342;SDS011;38277;51.972;4.624;2022-07-23T23:27:26;8.9;;;5.2;;
52342;SDS011;38277;51.972;4.624;2022-07-23T23:32:16;7.2;;;4.5;;
52342;SDS011;38277;51.972;4.624;2022-07-23T23:36:32;7.4;;;4.7;;
52342;SDS011;38277;51.972;4.624;2022-07-23T23:40:59;7.0;;;5.0;;
52342;SDS011;38277;51.972;4.624;2022-07-23T23:45:40;8.2;;;5.0;;
52342;SDS011;38277;51.972;4.624;2022-07-23T23:54:40;7.6;;;4.6;;
52342;SDS011;38277;51.972;4.624;2022-07-23T23:59:04;9.1;;;5.8;;
